Mojave, CA

9:55 AM PDT on June 19, 2018 (GMT -0700)
Mojave

Weather History for KMHV - October, 2017

Change the Weather History Date:

Tuesday, October 10, 2017

  Actual Average Record
Temperature  
Mean Temperature 60 °F -  
Max Temperature 75 °F 81 °F 94 °F (1965)
Min Temperature 44 °F 51 °F 37 °F (1973)
Degree Days  
Heating Degree Days 6    
Growing Degree Days 10 (Base 50)    
Moisture  
Dew Point 8 °F    
Average Humidity 13    
Maximum Humidity 20    
Minimum Humidity 9    
Precipitation  
Precipitation 0.00 in - - ()
Sea Level Pressure  
Sea Level Pressure 30.04 in    
Wind  
Wind Speed 6 mph (North)    
Max Wind Speed 13 mph    
Max Gust Speed 15 mph    
Visibility 10 miles    
Events      
Averages and records for this station are not official NWS values.
T = Trace of Precipitation, MM = Missing Value Source: NWS Daily Summary

Daily Weather History Graph

Daily Weather History Graph

Search for Another Location

Airport or City:

Astronomy

Oct. 10, 2017 Rise Set
Actual Time 6:54 AM PDT 6:23 PM PDT
Civil Twilight 6:29 AM PDT 6:49 PM PDT
Nautical Twilight 5:59 AM PDT 7:18 PM PDT
Astronomical Twilight 5:30 AM PDT 7:47 PM PDT
Moon 10:40 PM PDT (10/10) 12:06 PM PDT (10/10)
Length of Visible Light 12h 19m
Length of Day
11h 28m
Waning Gibbous, 70% of the Moon is Illuminated
Oct 10
Waning Gibbous
Oct 12
Last Quarter
Oct 19
New
Oct 27
First Quarter
Nov 3
Full

Hourly Weather History & Observations

Time (PDT) Temp. Windchill Dew Point Humidity Pressure Visibility Wind Dir Wind Speed Gust Speed Precip Events Conditions
12:00 AM 51.8 °F - 5.0 °F 15% 30.10 in 9.0 mi NNW 8.1 mph - N/A   Clear
12:20 AM 50.0 °F - 5.0 °F 16% 30.09 in 10.0 mi NNW 10.4 mph - N/A   Clear
12:40 AM 50.0 °F - 5.0 °F 16% 30.09 in 10.0 mi NNW 9.2 mph - N/A   Clear
1:00 AM 48.2 °F - 5.0 °F 17% 30.09 in 10.0 mi NNW 8.1 mph - N/A   Clear
1:20 AM 50.0 °F - 3.2 °F 15% 30.09 in 10.0 mi North 8.1 mph - N/A   Clear
1:40 AM 51.8 °F - 5.0 °F 15% 30.09 in 10.0 mi Calm Calm - N/A   Clear
2:00 AM 51.8 °F - 5.0 °F 15% 30.10 in 10.0 mi Calm Calm - N/A   Clear
2:20 AM 46.4 °F 44.3 °F 3.2 °F 17% 30.10 in 10.0 mi NNW 4.6 mph - N/A   Clear
2:40 AM 44.6 °F 41.4 °F 3.2 °F 18% 30.09 in 10.0 mi NNW 5.8 mph - N/A   Clear
3:00 AM 46.4 °F 41.9 °F 3.2 °F 17% 30.08 in 7.0 mi NNW 9.2 mph - N/A   Clear
3:20 AM 46.4 °F 43.5 °F 3.2 °F 17% 30.08 in 10.0 mi NNW 5.8 mph - N/A   Clear
3:40 AM 46.4 °F 42.4 °F 3.2 °F 17% 30.07 in 10.0 mi NNW 8.1 mph - N/A   Clear
4:00 AM 46.4 °F 41.9 °F 3.2 °F 17% 30.07 in 10.0 mi NNW 9.2 mph - N/A   Clear
4:20 AM 46.4 °F 41.9 °F 3.2 °F 17% 30.07 in 10.0 mi NNW 9.2 mph - N/A   Clear
4:40 AM 46.4 °F 41.9 °F 3.2 °F 17% 30.08 in 10.0 mi NNW 9.2 mph - N/A   Clear
5:00 AM 46.4 °F 41.9 °F 3.2 °F 17% 30.08 in 10.0 mi NNW 9.2 mph - N/A   Clear
5:20 AM 46.4 °F 41.9 °F 5.0 °F 18% 30.08 in 10.0 mi NNW 9.2 mph - N/A   Clear
5:40 AM 46.4 °F 42.4 °F 5.0 °F 18% 30.08 in 10.0 mi NNW 8.1 mph - N/A   Clear
6:00 AM 46.4 °F 42.4 °F 5.0 °F 18% 30.08 in 10.0 mi NNW 8.1 mph - N/A   Clear
6:20 AM 44.6 °F 42.2 °F 5.0 °F 20% 30.08 in 10.0 mi North 4.6 mph - N/A   Clear
6:40 AM 46.4 °F - 5.0 °F 18% 30.09 in 8.0 mi Calm Calm - N/A   Clear
7:00 AM 46.4 °F 43.5 °F 5.0 °F 18% 30.09 in 8.0 mi NNW 5.8 mph - N/A   Clear
7:20 AM 46.4 °F - 5.0 °F 18% 30.09 in 7.0 mi Calm Calm - N/A   Clear
7:40 AM 48.2 °F - 5.0 °F 17% 30.10 in 5.0 mi NNW 3.5 mph - N/A   Haze
8:00 AM 53.6 °F - 6.8 °F 15% 30.10 in 5.0 mi Calm Calm - N/A   Haze
8:20 AM 59.0 °F - 6.8 °F 13% 30.10 in 10.0 mi Calm Calm - N/A   Clear
8:40 AM 59.0 °F - 6.8 °F 13% 30.11 in 10.0 mi Calm Calm - N/A   Clear
9:00 AM 60.8 °F - 6.8 °F 12% 30.11 in 10.0 mi East 5.8 mph - N/A   Clear
9:20 AM 60.8 °F - 6.8 °F 12% 30.11 in 10.0 mi East 5.8 mph - N/A   Clear
9:40 AM 62.6 °F - 6.8 °F 11% 30.11 in 10.0 mi ENE 6.9 mph - N/A   Unknown
10:00 AM 66.2 °F - 6.8 °F 10% 30.11 in 10.0 mi NE 9.2 mph - N/A   Clear
10:20 AM 66.2 °F - 8.6 °F 11% 30.11 in 10.0 mi NE 12.7 mph - N/A   Clear
10:40 AM 66.2 °F - 8.6 °F 11% 30.10 in 10.0 mi East 10.4 mph - N/A   Clear
11:00 AM 66.2 °F - 8.6 °F 11% 30.10 in 10.0 mi NE 6.9 mph 15.0 mph N/A   Clear
11:20 AM 68.0 °F - 8.6 °F 10% 30.10 in 10.0 mi ENE 9.2 mph - N/A   Clear
11:40 AM 68.0 °F - 8.6 °F 10% 30.09 in 10.0 mi East 9.2 mph - N/A   Clear
12:00 PM 68.0 °F - 8.6 °F 10% 30.09 in 10.0 mi East 6.9 mph 13.8 mph N/A   Clear
12:20 PM 69.8 °F - 8.6 °F 9% 30.08 in 10.0 mi ENE 8.1 mph - N/A   Clear
12:40 PM 69.8 °F - 8.6 °F 9% 30.07 in 10.0 mi East 9.2 mph - N/A   Clear
1:00 PM 69.8 °F - 8.6 °F 9% 30.06 in 10.0 mi East 5.8 mph - N/A   Clear
1:20 PM 69.8 °F - 8.6 °F 9% 30.05 in 10.0 mi Variable 4.6 mph - N/A   Clear
1:40 PM 71.6 °F - 8.6 °F 9% 30.04 in 10.0 mi Variable 4.6 mph 12.7 mph N/A   Clear
2:00 PM 71.6 °F - 8.6 °F 9% 30.03 in 10.0 mi NNE 6.9 mph - N/A   Clear
2:20 PM 73.4 °F - 10.4 °F 9% 30.01 in 10.0 mi ESE 5.8 mph - N/A   Clear
2:40 PM 73.4 °F - 10.4 °F 9% 30.01 in 10.0 mi ENE 6.9 mph - N/A   Clear
3:00 PM 73.4 °F - 10.4 °F 9% 30.00 in 10.0 mi Variable 3.5 mph - N/A   Clear
3:20 PM 73.4 °F - 10.4 °F 9% 30.00 in 10.0 mi Variable 3.5 mph - N/A   Clear
3:40 PM 73.4 °F - 10.4 °F 9% 29.99 in 10.0 mi ENE 8.1 mph - N/A   Clear
4:00 PM 75.2 °F - 12.2 °F 9% 29.99 in 10.0 mi Calm Calm - N/A   Clear
4:20 PM 75.2 °F - 12.2 °F 9% 29.98 in 10.0 mi Variable 4.6 mph - N/A   Clear
4:40 PM 75.2 °F - 12.2 °F 9% 29.97 in 10.0 mi Variable 4.6 mph - N/A   Clear
5:00 PM 73.4 °F - 12.2 °F 10% 29.97 in 10.0 mi NE 4.6 mph - N/A   Clear
5:20 PM 73.4 °F - 12.2 °F 10% 29.96 in 10.0 mi Calm Calm - N/A   Clear
5:40 PM 73.4 °F - 12.2 °F 10% 29.96 in 10.0 mi SE 4.6 mph - N/A   Clear
6:00 PM 73.4 °F - 12.2 °F 10% 29.96 in 10.0 mi Calm Calm - N/A   Clear
6:20 PM 71.6 °F - 14.0 °F 11% 29.97 in 10.0 mi Calm Calm - N/A   Clear
6:40 PM 71.6 °F - 12.2 °F 10% 29.97 in 10.0 mi Calm Calm - N/A   Clear
7:00 PM 69.8 °F - 10.4 °F 10% 29.97 in 10.0 mi Calm Calm - N/A   Clear
7:20 PM 60.8 °F - 8.6 °F 13% 29.97 in 10.0 mi NW 5.8 mph - N/A   Clear
7:40 PM 60.8 °F - 10.4 °F 14% 29.97 in 10.0 mi NNW 4.6 mph - N/A   Clear
8:00 PM 60.8 °F - 10.4 °F 14% 29.97 in 10.0 mi NW 5.8 mph - N/A   Clear
8:20 PM 59.0 °F - 8.6 °F 14% 29.97 in 10.0 mi WNW 4.6 mph - N/A   Clear
8:40 PM 59.0 °F - 8.6 °F 14% 29.97 in 10.0 mi WNW 6.9 mph - N/A   Clear
9:00 PM 57.2 °F - 10.4 °F 16% 29.97 in 10.0 mi WNW 8.1 mph - N/A   Clear
9:20 PM 57.2 °F - 10.4 °F 16% 29.97 in 10.0 mi NW 9.2 mph - N/A   Clear
9:40 PM 57.2 °F - 10.4 °F 16% 29.98 in 10.0 mi NW 9.2 mph - N/A   Clear
10:00 PM 57.2 °F - 10.4 °F 16% 29.97 in 10.0 mi WNW 9.2 mph - N/A   Clear
10:20 PM 57.2 °F - 10.4 °F 16% 29.97 in 10.0 mi NW 9.2 mph - N/A   Clear
10:40 PM 55.4 °F - 10.4 °F 17% 29.97 in 10.0 mi WNW 8.1 mph - N/A   Clear
11:00 PM 55.4 °F - 10.4 °F 17% 29.96 in 10.0 mi NW 9.2 mph - N/A   Clear
11:20 PM 55.4 °F - 10.4 °F 17% 29.96 in 10.0 mi NW 9.2 mph - N/A   Clear
11:40 PM 55.4 °F - 10.4 °F 17% 29.96 in 10.0 mi NW 10.4 mph - N/A   Clear